Time;durP1;ratioP1;P1;durP2;ratioP2;P2;SDS_P1;SDS_P2;PMS_P1;PMS_P2;Temp;Humidity;BMP_temperature;BMP_pressure;BME280_temperature;BME280_humidity;BME280_pressure;Samples;Min_cycle;Max_cycle;Signal;HPM_P1;HPM_P2
2022/05/29 00:02:51;;;;;;;15.10;6.03;;;17.90;99.90;;;;;;5032240;28;20049;-71
2022/05/29 00:05:56;;;;;;;16.83;5.35;;;17.90;99.90;;;;;;5032635;28;20048;-71
2022/05/29 00:09:00;;;;;;;16.40;5.90;;;17.80;99.90;;;;;;5032529;28;20048;-71
2022/05/29 00:12:06;;;;;;;16.42;5.75;;;17.80;99.90;;;;;;5031978;28;20048;-71
2022/05/29 00:15:11;;;;;;;16.50;5.72;;;17.80;99.90;;;;;;5032156;28;20408;-71
2022/05/29 00:18:15;;;;;;;14.05;5.78;;;17.80;99.90;;;;;;5012348;28;20045;-71
2022/05/29 00:21:20;;;;;;;21.25;6.50;;;17.80;99.90;;;;;;5029214;28;20049;-71
2022/05/29 00:24:24;;;;;;;17.00;6.55;;;17.80;99.90;;;;;;5032191;28;20389;-71
2022/05/29 00:27:28;;;;;;;19.13;6.10;;;17.80;99.90;;;;;;5012242;28;20046;-71
2022/05/29 00:30:33;;;;;;;18.92;5.47;;;17.80;99.90;;;;;;5031735;28;20052;-71
2022/05/29 00:33:37;;;;;;;18.70;6.00;;;17.90;99.90;;;;;;5031781;28;20046;-71
2022/05/29 00:36:43;;;;;;;18.13;6.07;;;17.90;99.90;;;;;;5031926;28;20060;-71
2022/05/29 00:39:50;;;;;;;18.35;6.00;;;17.90;99.90;;;;;;5031815;28;20044;-71
2022/05/29 00:42:54;;;;;;;18.50;5.55;;;17.80;99.90;;;;;;5031674;28;20409;-71
2022/05/29 00:46:00;;;;;;;21.27;6.28;;;17.80;99.90;;;;;;5032150;28;20048;-71
2022/05/29 00:49:10;;;;;;;19.17;7.03;;;17.80;99.90;;;;;;5031712;28;20048;-71
2022/05/29 00:52:23;;;;;;;17.98;6.05;;;17.80;99.90;;;;;;5031286;28;20059;-71
2022/05/29 00:55:31;;;;;;;17.00;5.78;;;17.90;99.90;;;;;;5031471;28;20040;-71
2022/05/29 00:58:35;;;;;;;12.85;5.28;;;17.90;99.90;;;;;;5032257;28;20542;-71
2022/05/29 01:01:40;;;;;;;29.10;6.97;;;17.90;99.90;;;;;;5030955;28;20056;-71
2022/05/29 01:04:44;;;;;;;17.67;5.57;;;17.90;99.90;;;;;;5030735;28;20048;-71
2022/05/29 01:07:58;;;;;;;14.68;5.75;;;18.00;99.90;;;;;;5012026;28;20045;-71
2022/05/29 01:12:04;;;;;;;18.95;6.15;;;18.00;99.90;;;;;;5025354;28;20052;-71
2022/05/29 01:15:30;;;;;;;14.10;5.75;;;17.90;99.90;;;;;;5028876;28;20495;-71
2022/05/29 01:19:12;;;;;;;16.50;6.03;;;18.00;99.90;;;;;;5030782;28;20408;-71
2022/05/29 01:22:49;;;;;;;13.18;5.80;;;18.00;99.90;;;;;;5031038;28;20045;-72
2022/05/29 01:26:08;;;;;;;14.40;6.40;;;18.00;99.90;;;;;;5017857;28;20044;-71
2022/05/29 01:29:21;;;;;;;13.45;5.90;;;18.00;99.90;;;;;;5027287;28;20508;-71
2022/05/29 01:32:30;;;;;;;17.63;5.70;;;17.90;99.90;;;;;;5030696;28;20065;-71
2022/05/29 01:35:45;;;;;;;16.27;5.93;;;17.80;99.90;;;;;;5030848;28;20048;-71
2022/05/29 01:39:00;;;;;;;14.00;5.93;;;17.70;99.90;;;;;;5031139;28;20044;-70
2022/05/29 01:42:12;;;;;;;18.23;6.10;;;17.60;99.90;;;;;;5030508;28;20040;-71
2022/05/29 01:45:19;;;;;;;16.23;6.13;;;17.40;99.90;;;;;;5030514;28;20052;-71
2022/05/29 01:48:38;;;;;;;23.25;7.15;;;17.30;99.90;;;;;;5030877;28;20052;-71
2022/05/29 01:51:43;;;;;;;27.95;6.68;;;17.20;99.90;;;;;;5030682;28;20036;-71
2022/05/29 01:54:50;;;;;;;15.07;6.20;;;17.10;99.90;;;;;;5030093;28;20659;-71
2022/05/29 01:57:59;;;;;;;15.82;5.78;;;17.10;99.90;;;;;;5030335;28;20389;-71
2022/05/29 02:01:05;;;;;;;18.02;6.30;;;17.20;99.90;;;;;;5030361;28;20044;-71
2022/05/29 02:04:13;;;;;;;13.68;5.63;;;17.20;99.90;;;;;;5029014;28;20072;-72
2022/05/29 02:10:53;;;;;;;19.30;6.30;;;17.00;99.90;;;;;;5011032;28;20041;-71
2022/05/29 02:14:11;;;;;;;15.60;5.80;;;17.10;99.90;;;;;;5026221;28;20044;-72
2022/05/29 02:17:19;;;;;;;19.42;6.28;;;17.20;99.90;;;;;;5029908;28;20073;-71
2022/05/29 02:20:26;;;;;;;14.90;6.05;;;17.30;99.90;;;;;;5030301;28;20037;-71
2022/05/29 02:23:38;;;;;;;15.70;5.15;;;17.40;99.90;;;;;;5030317;28;20040;-71
2022/05/29 02:27:06;;;;;;;11.68;5.25;;;17.50;99.90;;;;;;5029790;28;20124;-72
2022/05/29 02:30:12;;;;;;;12.73;6.05;;;17.60;99.90;;;;;;5031621;28;20420;-72
2022/05/29 02:33:23;;;;;;;14.40;5.80;;;17.50;99.90;;;;;;5030073;28;20048;-72
2022/05/29 02:36:57;;;;;;;14.43;5.70;;;17.40;99.90;;;;;;5029321;28;20400;-72
2022/05/29 02:40:35;;;;;;;19.13;6.10;;;17.30;99.90;;;;;;5029445;28;20048;-71
2022/05/29 02:43:49;;;;;;;11.65;5.50;;;17.30;99.90;;;;;;5029569;28;20045;-71
2022/05/29 02:47:19;;;;;;;17.92;6.30;;;17.40;99.90;;;;;;5030247;28;20668;-71
2022/05/29 02:50:32;;;;;;;15.07;5.20;;;17.50;99.90;;;;;;5030668;28;20052;-71
2022/05/29 02:53:43;;;;;;;10.57;4.93;;;17.50;99.90;;;;;;5029589;28;20238;-70
2022/05/29 02:56:47;;;;;;;15.23;5.25;;;17.60;99.90;;;;;;5029267;28;20037;-71
2022/05/29 02:59:57;;;;;;;12.85;5.00;;;17.50;99.90;;;;;;5030168;28;20057;-70
2022/05/29 03:03:19;;;;;;;14.70;5.00;;;17.50;99.90;;;;;;5023549;28;20072;-70
2022/05/29 03:06:43;;;;;;;11.05;4.43;;;17.30;99.90;;;;;;5029604;28;20052;-70
2022/05/29 03:09:50;;;;;;;11.27;4.70;;;17.20;99.90;;;;;;5030295;28;20408;-71
2022/05/29 03:13:06;;;;;;;15.13;5.28;;;17.10;99.90;;;;;;5030198;28;20056;-71
2022/05/29 03:16:20;;;;;;;9.57;4.70;;;17.10;99.90;;;;;;5028768;28;20499;-72
2022/05/29 03:19:42;;;;;;;15.90;5.32;;;16.70;99.90;;;;;;5033092;28;20041;-71
2022/05/29 03:23:22;;;;;;;14.25;5.47;;;16.60;99.90;;;;;;5033347;28;20064;-72
2022/05/29 03:26:36;;;;;;;13.48;5.18;;;16.60;99.90;;;;;;5013517;28;20056;-71
2022/05/29 03:29:46;;;;;;;16.35;5.38;;;16.60;99.90;;;;;;5031904;28;20049;-71
2022/05/29 03:32:56;;;;;;;14.50;4.78;;;16.60;99.90;;;;;;5032306;28;20032;-71
2022/05/29 03:36:03;;;;;;;14.23;5.32;;;16.50;99.90;;;;;;5033101;28;20040;-71
2022/05/29 03:39:07;;;;;;;13.57;5.15;;;16.40;99.90;;;;;;5028874;28;20052;-71
2022/05/29 03:42:12;;;;;;;11.15;5.10;;;16.30;99.90;;;;;;5032472;28;20040;-71
2022/05/29 03:45:16;;;;;;;9.20;4.00;;;16.40;99.90;;;;;;5032440;28;20057;-71
2022/05/29 03:48:20;;;;;;;13.73;3.85;;;16.40;99.90;;;;;;5030779;28;20040;-71
2022/05/29 03:51:24;;;;;;;9.27;3.80;;;16.40;99.90;;;;;;5030299;28;20048;-71
2022/05/29 03:54:29;;;;;;;14.15;4.45;;;16.50;99.90;;;;;;5032700;28;20053;-72
2022/05/29 03:57:33;;;;;;;8.45;3.53;;;16.60;99.90;;;;;;5031863;28;20057;-71
2022/05/29 04:00:37;;;;;;;9.80;4.47;;;16.70;99.90;;;;;;5031718;28;20044;-72
2022/05/29 04:03:42;;;;;;;16.75;4.03;;;16.80;99.90;;;;;;5031917;28;20041;-72
2022/05/29 04:06:46;;;;;;;7.90;3.97;;;16.80;99.90;;;;;;5012412;28;20044;-71
2022/05/29 04:13:12;;;;;;;;;;;16.90;99.90;;;;;;5032241;28;20053;-71
2022/05/29 04:16:16;;;;;;;14.10;4.45;;;16.60;99.90;;;;;;5031728;28;20398;-71
2022/05/29 04:19:21;;;;;;;9.68;3.53;;;16.70;99.90;;;;;;5031818;28;20405;-71
2022/05/29 04:22:25;;;;;;;9.15;3.40;;;16.90;99.90;;;;;;5031336;28;20224;-72
2022/05/29 04:25:30;;;;;;;7.45;3.58;;;17.00;99.90;;;;;;5032413;28;20044;-71
2022/05/29 04:28:35;;;;;;;10.77;4.10;;;17.00;99.90;;;;;;5029256;28;20044;-71
2022/05/29 04:32:59;;;;;;;13.70;4.72;;;17.00;99.90;;;;;;5031044;28;20518;-72
2022/05/29 04:35:03;;;;;;;8.05;4.15;;;17.10;99.90;;;;;;5031140;28;20036;-71
2022/05/29 04:38:08;;;;;;;8.02;4.57;;;17.20;99.90;;;;;;5011374;28;20037;-72
2022/05/29 04:41:11;;;;;;;12.82;4.57;;;17.30;99.90;;;;;;5028757;28;20488;-72
2022/05/29 04:44:15;;;;;;;10.10;4.57;;;17.30;99.90;;;;;;5031239;28;20053;-72
2022/05/29 04:47:19;;;;;;;8.45;4.10;;;17.40;99.90;;;;;;5011458;28;20053;-72
2022/05/29 04:50:24;;;;;;;12.73;5.18;;;17.40;99.90;;;;;;5030723;28;20060;-72
2022/05/29 04:53:30;;;;;;;17.50;5.00;;;17.30;99.90;;;;;;5030668;28;20048;-72
2022/05/29 04:56:34;;;;;;;13.13;5.22;;;16.70;99.90;;;;;;5030814;28;20052;-71
2022/05/29 04:59:38;;;;;;;12.35;4.95;;;16.70;99.90;;;;;;5030570;28;20048;-71
2022/05/29 05:02:43;;;;;;;14.52;4.13;;;16.80;99.90;;;;;;5018325;28;20052;-72
2022/05/29 05:05:47;;;;;;;12.27;4.32;;;17.20;99.90;;;;;;5031414;28;20048;-72
2022/05/29 05:08:51;;;;;;;11.73;4.28;;;17.70;99.90;;;;;;5030436;28;20495;-72
2022/05/29 05:11:56;;;;;;;9.10;3.65;;;18.40;99.90;;;;;;5030439;28;20040;-72
2022/05/29 05:15:00;;;;;;;14.07;3.90;;;19.30;99.90;;;;;;5030390;28;20049;-72
2022/05/29 05:18:04;;;;;;;11.50;4.22;;;20.00;99.90;;;;;;5030084;28;20044;-71
2022/05/29 05:21:09;;;;;;;8.98;3.88;;;20.80;99.90;;;;;;5029972;28;20383;-71
2022/05/29 05:24:13;;;;;;;8.43;3.55;;;21.10;99.90;;;;;;5030401;28;20044;-71
2022/05/29 05:27:17;;;;;;;8.80;3.65;;;20.60;99.90;;;;;;5030040;28;20427;-71
2022/05/29 05:30:21;;;;;;;8.25;3.45;;;20.70;99.90;;;;;;5030140;28;20052;-71
2022/05/29 05:33:25;;;;;;;11.38;3.03;;;22.30;99.90;;;;;;5030546;28;20064;-72
2022/05/29 05:36:30;;;;;;;7.47;3.22;;;23.80;99.90;;;;;;5030044;28;20044;-72
2022/05/29 05:39:33;;;;;;;5.72;2.60;;;23.70;99.90;;;;;;5029294;28;20049;-71
2022/05/29 05:42:38;;;;;;;13.50;3.35;;;23.00;99.90;;;;;;5030120;28;20036;-71
2022/05/29 05:45:42;;;;;;;11.63;2.78;;;22.40;99.90;;;;;;5031070;28;20483;-71
2022/05/29 05:48:46;;;;;;;4.88;2.15;;;21.80;99.90;;;;;;5029964;28;20052;-71
2022/05/29 05:51:51;;;;;;;5.38;2.00;;;21.70;99.90;;;;;;5029777;28;20519;-71
2022/05/29 05:54:56;;;;;;;5.30;1.80;;;22.30;99.90;;;;;;5030455;28;20060;-72
2022/05/29 05:58:00;;;;;;;6.45;2.65;;;23.70;99.90;;;;;;5025311;28;20044;-72
2022/05/29 06:01:07;;;;;;;6.65;2.15;;;24.80;99.90;;;;;;5029568;28;20048;-72
2022/05/29 06:04:11;;;;;;;9.75;2.53;;;25.30;99.90;;;;;;5029945;28;20052;-72
2022/05/29 06:07:15;;;;;;;8.25;2.00;;;25.10;99.90;;;;;;5027772;28;20056;-72
2022/05/29 06:10:18;;;;;;;8.32;2.05;;;25.40;99.90;;;;;;5029418;28;20040;-72
2022/05/29 06:13:22;;;;;;;4.03;1.75;;;26.70;99.90;;;;;;5029946;28;20060;-72
2022/05/29 06:16:26;;;;;;;6.10;1.55;;;28.10;99.90;;;;;;5029178;28;20053;-72
2022/05/29 06:19:31;;;;;;;4.28;1.48;;;28.10;99.70;;;;;;5029251;28;20040;-70
2022/05/29 06:22:39;;;;;;;4.72;1.60;;;27.50;99.90;;;;;;5029629;28;20052;-72
2022/05/29 06:25:44;;;;;;;6.97;1.90;;;26.80;99.90;;;;;;5009954;28;20512;-72
2022/05/29 06:28:48;;;;;;;5.50;1.70;;;25.90;99.90;;;;;;5027904;28;20388;-72
2022/05/29 06:31:55;;;;;;;7.28;1.92;;;25.10;99.90;;;;;;5029624;28;20491;-72
2022/05/29 06:34:59;;;;;;;6.00;1.63;;;24.50;99.90;;;;;;5010141;28;20340;-72
2022/05/29 06:38:04;;;;;;;8.93;1.95;;;24.20;99.90;;;;;;5022520;28;20048;-72
2022/05/29 06:41:11;;;;;;;10.00;2.00;;;23.90;99.90;;;;;;5029085;28;20396;-72
2022/05/29 06:44:16;;;;;;;10.05;2.10;;;23.40;99.90;;;;;;5029607;28;20040;-71
2022/05/29 06:47:20;;;;;;;5.18;1.67;;;22.60;99.90;;;;;;5028872;28;20408;-72
2022/05/29 06:50:24;;;;;;;5.70;1.65;;;22.20;99.90;;;;;;5028770;28;20040;-72
2022/05/29 06:53:28;;;;;;;10.60;2.55;;;21.90;99.90;;;;;;5033510;28;20048;-72
2022/05/29 06:56:32;;;;;;;7.38;2.00;;;21.20;99.90;;;;;;5033065;28;20068;-73
2022/05/29 07:06:58;;;;;;;8.82;2.47;;;21.70;99.90;;;;;;5033070;28;20048;-72
2022/05/29 07:09:49;;;;;;;6.88;2.05;;;23.00;99.90;;;;;;5033149;28;20394;-72
2022/05/29 07:12:53;;;;;;;8.35;2.25;;;23.10;99.90;;;;;;5032826;28;20048;-72
2022/05/29 07:15:58;;;;;;;5.50;1.73;;;23.30;99.90;;;;;;5033006;28;20052;-72
2022/05/29 07:19:04;;;;;;;5.95;2.03;;;24.10;99.90;;;;;;5032742;28;20036;-72
2022/05/29 07:22:08;;;;;;;9.13;2.30;;;25.10;99.90;;;;;;5032334;28;20044;-72
2022/05/29 07:25:13;;;;;;;3.80;1.60;;;26.40;99.90;;;;;;5031882;28;20040;-71
2022/05/29 07:28:17;;;;;;;4.68;2.30;;;27.80;99.90;;;;;;5032643;28;20040;-70
2022/05/29 07:31:22;;;;;;;4.63;1.80;;;27.00;99.90;;;;;;5030113;28;20056;-70
2022/05/29 07:34:27;;;;;;;8.85;2.40;;;29.30;99.60;;;;;;5017791;28;20064;-70
2022/05/29 07:37:31;;;;;;;7.80;1.98;;;31.30;97.40;;;;;;5012763;28;20053;-71
2022/05/29 07:40:35;;;;;;;5.72;1.58;;;33.00;95.50;;;;;;5031832;28;20388;-70
2022/05/29 07:43:40;;;;;;;5.20;1.30;;;33.70;93.20;;;;;;5031970;28;20386;-71
2022/05/29 07:46:45;;;;;;;6.30;1.75;;;34.00;92.10;;;;;;5032402;28;20044;-71
2022/05/29 07:49:49;;;;;;;5.75;1.33;;;33.90;91.20;;;;;;5032122;28;20037;-70
2022/05/29 07:52:54;;;;;;;6.68;1.52;;;30.90;89.80;;;;;;5031648;28;20052;-70
2022/05/29 07:55:58;;;;;;;7.45;1.40;;;30.60;92.00;;;;;;5032494;28;20044;-71
2022/05/29 07:59:02;;;;;;;5.55;1.92;;;29.50;92.30;;;;;;5031724;28;20044;-72
2022/05/29 08:02:07;;;;;;;4.30;1.55;;;28.60;93.30;;;;;;5031685;28;20044;-72
2022/05/29 08:05:14;;;;;;;4.47;1.90;;;28.40;94.30;;;;;;5031998;28;20040;-70
2022/05/29 08:08:18;;;;;;;5.75;1.60;;;28.70;94.50;;;;;;5031588;28;20049;-72
2022/05/29 08:11:22;;;;;;;7.80;2.00;;;29.30;94.30;;;;;;5031406;28;20037;-70
2022/05/29 08:14:27;;;;;;;4.95;2.15;;;30.20;93.50;;;;;;5031916;28;20052;-70
2022/05/29 08:17:32;;;;;;;10.00;1.67;;;31.20;92.90;;;;;;5011838;28;20048;-71
2022/05/29 08:20:37;;;;;;;5.47;1.70;;;31.60;92.00;;;;;;5028835;28;20066;-70
2022/05/29 08:23:41;;;;;;;6.85;1.58;;;30.40;92.10;;;;;;5031783;28;20060;-70
2022/05/29 08:33:34;;;;;;;8.48;2.03;;;29.80;93.00;;;;;;5031490;28;20048;-70
2022/05/29 08:36:38;;;;;;;7.50;1.77;;;30.30;93.00;;;;;;5030840;28;20044;-72
2022/05/29 08:39:42;;;;;;;7.18;2.15;;;30.20;93.00;;;;;;5031396;28;20060;-70
2022/05/29 08:42:47;;;;;;;8.77;1.95;;;31.00;92.70;;;;;;5030763;28;20056;-71
2022/05/29 08:45:52;;;;;;;4.88;1.50;;;31.60;92.10;;;;;;5031013;28;20049;-70
2022/05/29 08:48:57;;;;;;;5.18;1.95;;;31.50;91.40;;;;;;5032159;28;20048;-71
2022/05/29 08:52:23;;;;;;;5.63;1.90;;;29.60;92.10;;;;;;5031453;28;20061;-72
2022/05/29 08:55:45;;;;;;;5.63;1.83;;;29.40;93.20;;;;;;5031057;28;20507;-70
2022/05/29 08:58:52;;;;;;;9.55;2.13;;;30.50;93.20;;;;;;5032071;28;20049;-71
2022/05/29 09:02:09;;;;;;;6.57;1.80;;;30.30;92.90;;;;;;5029329;28;20040;-70
2022/05/29 09:05:27;;;;;;;5.80;1.95;;;31.30;91.40;;;;;;5031142;28;20344;-71
2022/05/29 09:08:38;;;;;;;5.63;1.88;;;30.20;91.00;;;;;;5031846;28;20045;-72
2022/05/29 09:11:58;;;;;;;3.95;1.45;;;28.80;92.00;;;;;;5032228;28;20048;-72
2022/05/29 09:15:06;;;;;;;5.55;2.05;;;31.70;91.20;;;;;;5025723;28;20483;-73
2022/05/29 09:18:31;;;;;;;6.63;1.88;;;32.60;91.20;;;;;;5030376;28;20053;-72
2022/05/29 09:21:52;;;;;;;3.75;1.98;;;34.60;89.50;;;;;;5031332;28;20071;-71
2022/05/29 09:25:06;;;;;;;3.60;1.67;;;34.50;87.60;;;;;;5031229;28;20044;-72
2022/05/29 09:28:32;;;;;;;3.35;1.48;;;37.00;84.70;;;;;;5029920;28;20048;-70
2022/05/29 09:31:38;;;;;;;4.35;1.65;;;38.20;81.80;;;;;;5030128;28;20064;-70
2022/05/29 09:34:59;;;;;;;10.18;1.70;;;37.00;81.20;;;;;;5030513;28;20052;-73
2022/05/29 09:38:23;;;;;;;10.13;2.25;;;38.10;81.10;;;;;;5029649;28;20044;-70
2022/05/29 09:41:36;;;;;;;3.67;1.27;;;40.20;79.90;;;;;;5029466;28;20488;-70
2022/05/29 09:45:09;;;;;;;9.43;1.50;;;41.20;76.60;;;;;;5029405;28;20040;-70
2022/05/29 09:52:19;;;;;;;3.72;1.27;;;40.70;73.00;;;;;;5009372;28;20053;-72
2022/05/29 09:55:32;;;;;;;5.95;1.55;;;38.00;77.70;;;;;;5029846;28;20045;-71
2022/05/29 09:59:19;;;;;;;5.75;1.30;;;39.40;75.10;;;;;;5029190;28;20049;-71
2022/05/29 10:02:35;;;;;;;5.35;1.45;;;38.20;75.90;;;;;;5029897;28;20049;-70
2022/05/29 10:05:42;;;;;;;4.95;1.35;;;39.30;74.20;;;;;;5009407;28;20053;-69
2022/05/29 10:08:46;;;;;;;6.47;1.77;;;38.90;76.40;;;;;;5024891;28;20499;-70
2022/05/29 10:12:14;;;;;;;2.97;1.10;;;38.00;73.90;;;;;;5029271;28;20052;-71
2022/05/29 10:15:26;;;;;;;7.57;2.33;;;36.60;76.30;;;;;;5029643;28;20040;-69
2022/05/29 10:18:39;;;;;;;7.93;2.75;;;36.30;78.40;;;;;;5010845;28;20049;-72
2022/05/29 10:21:48;;;;;;;4.22;1.40;;;34.30;79.50;;;;;;5028682;28;20056;-72
2022/05/29 10:24:52;;;;;;;5.35;1.55;;;36.90;77.70;;;;;;5030830;28;20048;-72
2022/05/29 10:28:09;;;;;;;6.63;1.77;;;38.20;75.70;;;;;;5029107;28;20048;-70
2022/05/29 10:31:23;;;;;;;4.72;1.40;;;37.70;74.60;;;;;;5030385;28;20057;-71
2022/05/29 10:34:33;;;;;;;4.63;1.40;;;38.00;76.40;;;;;;5030175;28;20044;-71
2022/05/29 10:37:43;;;;;;;3.63;1.17;;;36.50;76.00;;;;;;5029256;28;20404;-71
2022/05/29 10:40:48;;;;;;;;;;;39.30;75.80;;;;;;5031325;28;20049;-71
2022/05/29 10:43:55;;;;;;;4.80;1.50;;;36.70;72.90;;;;;;5029503;28;19920;-71
2022/05/29 10:47:15;;;;;;;3.95;1.50;;;34.90;76.10;;;;;;5028817;28;20048;-71
2022/05/29 10:50:30;;;;;;;5.72;1.77;;;31.40;82.80;;;;;;5010218;28;20049;-71
2022/05/29 10:53:54;;;;;;;3.80;1.58;;;33.20;81.40;;;;;;5024668;28;20044;-71
2022/05/29 10:57:06;;;;;;;3.40;1.20;;;37.50;77.70;;;;;;5027835;28;20503;-72
2022/05/29 11:00:33;;;;;;;4.25;1.33;;;40.40;74.40;;;;;;5029303;28;20060;-69
2022/05/29 11:04:14;;;;;;;4.85;1.58;;;40.50;72.50;;;;;;5030493;28;20052;-71
2022/05/29 11:07:33;;;;;;;4.70;1.83;;;40.40;71.00;;;;;;5028513;28;20052;-72
2022/05/29 11:11:15;;;;;;;6.40;1.60;;;37.70;72.40;;;;;;5028911;28;20060;-70
2022/05/29 11:14:30;;;;;;;5.85;1.50;;;36.50;75.70;;;;;;5028678;28;20056;-72
2022/05/29 11:17:40;;;;;;;5.53;1.35;;;37.30;75.00;;;;;;5028620;28;20503;-72
2022/05/29 11:21:08;;;;;;;;;;;38.50;73.70;;;;;;5027295;28;20048;-71
2022/05/29 11:24:36;;;;;;;2.70;1.30;;;38.10;72.90;;;;;;5028522;28;19937;-71
2022/05/29 11:28:07;;;;;;;4.43;1.35;;;38.80;70.80;;;;;;5028101;28;20052;-70
2022/05/29 11:31:34;;;;;;;4.60;1.23;;;37.20;73.30;;;;;;5029738;28;20036;-70
2022/05/29 11:34:47;;;;;;;6.40;1.80;;;38.00;72.40;;;;;;5009848;28;20049;-71
2022/05/29 11:38:15;;;;;;;5.85;1.40;;;39.00;71.60;;;;;;5026378;28;20065;-71
2022/05/29 11:42:03;;;;;;;5.65;1.50;;;39.60;71.30;;;;;;5031980;28;20046;-71
2022/05/29 11:45:15;;;;;;;7.05;1.48;;;39.40;70.80;;;;;;5010892;28;20049;-71
2022/05/29 11:52:13;;;;;;;18.63;2.83;;;38.30;71.80;;;;;;5028693;28;20043;-72
2022/05/29 11:55:22;;;;;;;7.13;1.50;;;34.90;74.10;;;;;;5031943;28;20063;-71
2022/05/29 11:58:44;;;;;;;5.43;1.95;;;32.50;77.10;;;;;;5032663;28;20076;-70
2022/05/29 12:02:00;;;;;;;9.82;2.00;;;31.10;78.00;;;;;;5013068;28;20044;-71
2022/05/29 12:05:40;;;;;;;6.35;2.22;;;30.00;81.10;;;;;;5026012;28;20044;-71
2022/05/29 12:08:54;;;;;;;7.78;1.95;;;29.70;82.60;;;;;;5031545;28;20036;-71
2022/05/29 12:12:05;;;;;;;11.18;2.17;;;29.50;85.30;;;;;;5031915;28;20048;-71
2022/05/29 12:15:18;;;;;;;4.55;1.58;;;29.50;83.40;;;;;;5031450;28;20411;-71
2022/05/29 12:18:29;;;;;;;3.67;1.60;;;30.00;81.80;;;;;;5030907;28;20052;-71
2022/05/29 12:21:56;;;;;;;5.32;2.03;;;29.50;84.40;;;;;;5031773;28;20036;-71
2022/05/29 12:25:03;;;;;;;5.10;2.03;;;28.60;85.90;;;;;;5031972;28;20385;-71
2022/05/29 12:28:10;;;;;;;7.93;2.00;;;28.80;87.00;;;;;;5031270;28;20515;-71
2022/05/29 12:31:30;;;;;;;9.88;1.85;;;27.80;88.20;;;;;;5031360;28;20044;-71
2022/05/29 12:34:45;;;;;;;12.00;2.28;;;28.60;88.50;;;;;;5030740;28;20052;-71
2022/05/29 12:38:07;;;;;;;8.00;1.90;;;29.10;86.90;;;;;;5011462;28;20396;-70
2022/05/29 12:41:41;;;;;;;7.85;2.20;;;29.50;85.60;;;;;;5027276;28;20057;-71
2022/05/29 12:44:59;;;;;;;9.35;2.05;;;28.90;85.80;;;;;;5030615;28;20048;-73
2022/05/29 12:48:22;;;;;;;5.85;1.58;;;29.70;86.40;;;;;;5031199;28;20044;-72
2022/05/29 12:52:20;;;;;;;5.38;1.70;;;30.20;84.70;;;;;;5031146;28;20389;-72
2022/05/29 12:55:35;;;;;;;4.07;1.60;;;31.00;82.10;;;;;;5009098;28;20045;-72
2022/05/29 12:59:07;;;;;;;4.55;1.80;;;32.10;82.80;;;;;;5030463;28;20527;-71
2022/05/29 13:02:17;;;;;;;7.70;2.05;;;33.30;81.40;;;;;;5030654;28;20056;-71
2022/05/29 13:05:24;;;;;;;13.00;1.97;;;33.80;78.80;;;;;;5031186;28;20040;-73
2022/05/29 13:08:57;;;;;;;6.40;1.85;;;34.70;77.10;;;;;;5030581;28;20044;-72
2022/05/29 13:12:06;;;;;;;8.85;2.10;;;34.60;78.60;;;;;;5030578;28;20041;-71
2022/05/29 13:15:22;;;;;;;5.95;2.00;;;33.80;77.70;;;;;;5030875;28;20500;-73
2022/05/29 13:21:57;;;;;;;5.30;1.48;;;32.90;82.30;;;;;;5027915;28;20056;-71
2022/05/29 13:25:04;;;;;;;6.25;1.50;;;33.20;82.60;;;;;;5029192;28;20048;-73
2022/05/29 13:28:33;;;;;;;3.97;1.27;;;33.90;79.80;;;;;;5030308;28;20526;-71
2022/05/29 13:32:14;;;;;;;5.55;1.83;;;34.30;80.80;;;;;;5011317;28;20045;-71
2022/05/29 13:35:36;;;;;;;3.80;1.20;;;34.30;80.30;;;;;;5029358;28;20052;-70
2022/05/29 13:38:46;;;;;;;5.63;1.00;;;34.30;80.20;;;;;;5029658;28;20056;-70
2022/05/29 13:42:00;;;;;;;4.28;1.40;;;34.20;81.30;;;;;;5030533;28;20042;-72
2022/05/29 13:45:31;;;;;;;4.93;1.30;;;33.90;82.10;;;;;;5030491;28;20041;-70
2022/05/29 13:49:01;;;;;;;5.47;1.25;;;33.60;83.60;;;;;;5023381;28;20507;-71
2022/05/29 13:52:07;;;;;;;7.63;1.52;;;33.10;83.70;;;;;;5029241;28;20384;-70
2022/05/29 13:55:34;;;;;;;2.38;1.20;;;32.80;82.90;;;;;;5029727;28;20044;-71
2022/05/29 14:05:56;;;;;;;5.63;1.42;;;29.90;86.70;;;;;;5029706;28;20052;-71
2022/05/29 14:09:26;;;;;;;5.32;1.52;;;29.30;86.80;;;;;;5028546;28;20049;-70
2022/05/29 14:13:00;;;;;;;4.15;1.63;;;28.70;87.90;;;;;;5029622;28;20036;-71
2022/05/29 14:16:18;;;;;;;25.85;10.82;;;27.60;90.50;;;;;;5010316;28;20040;-70
2022/05/29 14:19:38;;;;;;;8.35;3.10;;;25.60;92.70;;;;;;5029102;28;20566;-70
2022/05/29 14:23:04;;;;;;;91.75;35.65;;;24.60;94.10;;;;;;5029564;28;20041;-71
2022/05/29 14:30:22;;;;;;;31.45;4.45;;;23.30;98.60;;;;;;5028699;28;20049;-71
2022/05/29 14:33:40;;;;;;;10.73;1.98;;;23.70;98.70;;;;;;5028952;28;20056;-70
2022/05/29 14:37:06;;;;;;;3.90;1.92;;;23.80;98.90;;;;;;5028151;28;20052;-71
2022/05/29 14:40:31;;;;;;;26.58;9.57;;;24.10;98.50;;;;;;5029665;28;20121;-71
2022/05/29 14:43:39;;;;;;;14.50;5.57;;;24.50;98.60;;;;;;5029430;28;20048;-71
2022/05/29 14:50:03;;;;;;;7.47;2.38;;;25.20;96.90;;;;;;5028291;28;20048;-71
2022/05/29 14:53:22;;;;;;;4.20;1.70;;;25.40;96.70;;;;;;5029404;28;20057;-71
2022/05/29 14:56:41;;;;;;;8.93;2.28;;;25.50;96.80;;;;;;5009400;28;20052;-72
2022/05/29 14:59:50;;;;;;;6.38;2.28;;;24.60;97.70;;;;;;5028704;28;20262;-71
2022/05/29 15:03:02;;;;;;;7.93;2.15;;;24.10;98.50;;;;;;5028488;28;20048;-71
2022/05/29 15:06:12;;;;;;;7.97;2.40;;;23.80;99.30;;;;;;5028853;28;20060;-71
2022/05/29 15:12:44;;;;;;;8.02;3.03;;;22.90;99.90;;;;;;5029977;28;20036;-70
2022/05/29 15:15:52;;;;;;;11.07;2.83;;;22.50;99.90;;;;;;5032538;28;20044;-71
2022/05/29 15:19:17;;;;;;;9.07;2.33;;;22.60;99.90;;;;;;5036097;28;20045;-71
2022/05/29 15:26:07;;;;;;;9.55;3.10;;;22.60;99.90;;;;;;5032837;28;20052;-71
2022/05/29 15:29:31;;;;;;;6.53;2.67;;;22.80;99.90;;;;;;5034199;28;20120;-71
2022/05/29 15:32:39;;;;;;;6.88;2.17;;;23.10;99.90;;;;;;5033253;28;20053;-70
2022/05/29 15:35:46;;;;;;;9.65;2.50;;;23.70;99.90;;;;;;5027296;28;20052;-71
2022/05/29 15:39:13;;;;;;;10.38;2.30;;;23.50;99.90;;;;;;5031864;28;20404;-71
2022/05/29 15:42:25;;;;;;;10.77;3.92;;;24.00;99.90;;;;;;5032000;28;20057;-71
2022/05/29 15:45:35;;;;;;;4.65;1.60;;;24.00;99.90;;;;;;5013572;28;20049;-72
2022/05/29 15:48:58;;;;;;;6.63;1.73;;;24.50;99.90;;;;;;5030303;28;20052;-71
2022/05/29 15:52:19;;;;;;;3.60;1.67;;;24.80;99.90;;;;;;5030154;28;20053;-72
2022/05/29 15:55:33;;;;;;;2.88;1.63;;;25.30;99.90;;;;;;5032295;28;20053;-71
2022/05/29 15:59:02;;;;;;;7.47;1.80;;;25.60;99.90;;;;;;5030181;28;20048;-72
2022/05/29 16:02:14;;;;;;;3.58;2.30;;;26.00;99.90;;;;;;5030788;28;20040;-71
2022/05/29 16:05:19;;;;;;;3.88;2.25;;;26.30;99.90;;;;;;5031526;28;20503;-72
2022/05/29 16:08:35;;;;;;;5.25;1.95;;;26.40;99.70;;;;;;5024130;28;20044;-71
2022/05/29 16:11:54;;;;;;;5.35;3.00;;;26.30;99.60;;;;;;5027703;28;20044;-71
2022/05/29 16:14:59;;;;;;;3.70;2.17;;;26.20;99.40;;;;;;5031589;28;20044;-72
2022/05/29 16:18:34;;;;;;;5.70;1.80;;;25.80;99.60;;;;;;5032063;28;20717;-71
2022/05/29 16:22:16;;;;;;;3.38;1.30;;;25.70;99.60;;;;;;5032786;28;20044;-71
2022/05/29 16:25:26;;;;;;;2.20;1.15;;;25.60;99.70;;;;;;5029266;28;20040;-71
2022/05/29 16:28:51;;;;;;;5.13;1.42;;;25.60;99.60;;;;;;5031440;28;20065;-71
2022/05/29 16:32:27;;;;;;;4.50;1.20;;;25.40;99.70;;;;;;5027070;28;20032;-72
2022/05/29 16:35:58;;;;;;;4.07;1.42;;;24.60;99.90;;;;;;5022865;28;20400;-71
2022/05/29 16:49:29;;;;;;;4.20;1.10;;;24.50;99.90;;;;;;5025694;28;20053;-71
2022/05/29 16:52:38;;;;;;;2.25;1.00;;;24.40;99.90;;;;;;5030258;28;20044;-71
2022/05/29 16:55:45;;;;;;;5.53;1.13;;;24.30;99.90;;;;;;5030900;28;20048;-71
2022/05/29 16:59:06;;;;;;;3.60;0.90;;;24.20;99.90;;;;;;5030465;28;20045;-71
2022/05/29 17:02:25;;;;;;;3.20;1.88;;;24.10;99.90;;;;;;5011410;28;20380;-72
2022/05/29 17:05:43;;;;;;;6.78;2.17;;;23.90;99.90;;;;;;5026656;28;20036;-70
2022/05/29 17:09:16;;;;;;;7.25;2.03;;;23.80;99.90;;;;;;5030624;28;20520;-71
2022/05/29 17:12:20;;;;;;;4.15;1.25;;;23.90;99.90;;;;;;5030822;28;20056;-71
2022/05/29 17:15:30;;;;;;;2.17;0.90;;;23.80;99.90;;;;;;5031175;28;20056;-71
2022/05/29 17:18:35;;;;;;;3.47;0.95;;;23.70;99.90;;;;;;5023701;28;20068;-71
2022/05/29 17:21:44;;;;;;;2.05;1.17;;;23.50;99.90;;;;;;5030246;28;20048;-71
2022/05/29 17:24:54;;;;;;;3.03;0.95;;;23.20;99.90;;;;;;5031019;28;20052;-71
2022/05/29 17:28:12;;;;;;;1.42;0.80;;;23.10;99.90;;;;;;5030724;28;20045;-71
2022/05/29 17:31:21;;;;;;;1.45;0.75;;;22.90;99.90;;;;;;5030102;28;20395;-70
2022/05/29 17:34:32;;;;;;;3.13;1.10;;;22.70;99.90;;;;;;5030563;28;20064;-71
2022/05/29 17:38:03;;;;;;;2.63;1.17;;;22.60;99.90;;;;;;5010033;28;20053;-71
2022/05/29 17:41:07;;;;;;;2.40;0.82;;;22.60;99.90;;;;;;5025390;28;20124;-71
2022/05/29 17:44:13;;;;;;;2.28;1.00;;;22.40;99.90;;;;;;5030038;28;20404;-71